Time;durP1;ratioP1;P1;durP2;ratioP2;P2;SDS_P1;SDS_P2;PMS_P1;PMS_P2;Temp;Humidity;BMP_temperature;BMP_pressure;BME280_temperature;BME280_humidity;BME280_pressure;Samples;Min_cycle;Max_cycle;Signal;HPM_P1;HPM_P2
2022/01/22 00:01:32;;;;;;;11.28;5.10;;;;;;;-2.19;74.63;100516.66;1670044;84;27506;-76
2022/01/22 00:03:59;;;;;;;10.72;4.60;;;;;;;-2.20;75.10;100507.59;1669609;84;25926;-75
2022/01/22 00:06:25;;;;;;;12.98;5.60;;;;;;;-2.26;75.54;100502.75;1670009;85;25822;-76
2022/01/22 00:08:51;;;;;;;11.83;5.55;;;;;;;-2.31;75.24;100498.33;1669748;85;25767;-77
2022/01/22 00:11:17;;;;;;;14.10;6.37;;;;;;;-2.29;75.40;100511.70;1669964;84;25912;-76
2022/01/22 00:16:29;;;;;;;7.85;4.58;;;;;;;-2.37;76.31;100510.06;1670318;85;25767;-76
2022/01/22 00:18:55;;;;;;;13.80;5.08;;;;;;;-2.37;76.31;100510.06;1669970;85;25975;-76
2022/01/22 00:21:21;;;;;;;13.95;5.87;;;;;;;-2.42;76.89;100507.76;1669811;84;25872;-76
2022/01/22 00:23:55;;;;;;;12.00;5.30;;;;;;;-2.42;76.89;100507.76;1669514;83;26507;-75
2022/01/22 00:26:15;;;;;;;12.78;4.72;;;;;;;-2.43;76.88;100519.21;1669120;85;27468;-75
2022/01/22 00:28:42;;;;;;;12.47;4.97;;;;;;;-2.47;77.00;100505.10;1669969;85;26686;-76
2022/01/22 00:31:08;;;;;;;10.60;5.08;;;;;;;-2.52;77.09;100507.19;1669840;84;25875;-76
2022/01/22 00:33:34;;;;;;;11.05;5.05;;;;;;;-2.50;77.71;100511.86;1669825;85;26654;-75
2022/01/22 00:36:00;;;;;;;10.30;4.72;;;;;;;-2.54;77.67;100515.64;1670058;84;26588;-76
2022/01/22 00:38:26;;;;;;;10.68;5.33;;;;;;;-2.56;77.90;100512.29;1670298;85;28272;-76
2022/01/22 00:40:53;;;;;;;12.07;5.37;;;;;;;-2.64;78.24;100503.66;1669712;84;26424;-76
2022/01/22 00:43:20;;;;;;;16.10;5.50;;;;;;;-2.64;78.24;100503.66;1669856;85;25895;-76
2022/01/22 00:45:47;;;;;;;13.88;5.72;;;;;;;-2.66;78.59;100509.94;1669862;85;25799;-77
2022/01/22 00:48:13;;;;;;;11.95;5.65;;;;;;;-2.61;78.33;100520.47;1670080;84;25819;-76
2022/01/22 00:50:39;;;;;;;11.38;5.83;;;;;;;-2.61;78.50;100514.41;1669682;84;27407;-76
2022/01/22 00:53:06;;;;;;;16.82;6.42;;;;;;;-2.63;78.35;100509.25;1669540;85;25889;-76
2022/01/22 00:55:32;;;;;;;12.82;5.35;;;;;;;-2.68;78.86;100517.92;1669811;85;25799;-75
2022/01/22 00:57:58;;;;;;;15.78;6.08;;;;;;;-2.68;78.86;100517.92;1669997;84;27033;-76
2022/01/22 01:00:24;;;;;;;12.43;6.08;;;;;;;-2.73;78.90;100522.63;1669531;84;25515;-76
2022/01/22 01:02:50;;;;;;;14.50;5.72;;;;;;;-2.76;79.41;100520.20;1667739;84;27437;-76
2022/01/22 01:05:17;;;;;;;17.40;6.30;;;;;;;-2.80;79.45;100517.42;1659687;86;25904;-76
2022/01/22 01:07:43;;;;;;;16.12;7.30;;;;;;;-2.82;79.48;100518.50;1659836;86;25838;-76
2022/01/22 01:10:14;;;;;;;13.80;6.58;;;;;;;-2.95;79.78;100499.30;1660103;84;25782;-75
2022/01/22 01:12:42;;;;;;;14.65;6.30;;;;;;;-2.95;79.78;100499.30;1660247;86;25919;-76
2022/01/22 01:15:38;;;;;;;15.88;7.67;;;;;;;-2.98;80.13;100499.03;1660461;85;27474;-77
2022/01/22 01:34:13;;;;;;;15.65;7.65;;;;;;;-3.00;81.89;100504.84;1660688;85;25771;-76
2022/01/22 01:36:41;;;;;;;19.32;8.73;;;;;;;-3.00;81.60;100513.17;1660684;86;26608;-75
2022/01/22 01:39:13;;;;;;;12.70;6.55;;;;;;;-3.03;82.10;100502.42;1660820;85;25819;-75
2022/01/22 01:41:56;;;;;;;18.05;8.28;;;;;;;-3.02;81.85;100506.73;1660276;86;27467;-76
2022/01/22 01:44:20;;;;;;;15.00;7.30;;;;;;;-3.11;81.94;100496.87;1660276;86;26166;-76
2022/01/22 01:46:59;;;;;;;14.83;7.40;;;;;;;-3.02;82.38;100504.58;1659293;86;25958;-76
2022/01/22 01:49:28;;;;;;;17.70;8.10;;;;;;;-3.02;82.38;100504.58;1660756;84;25775;-76
2022/01/22 01:51:58;;;;;;;14.45;8.08;;;;;;;-3.02;82.23;100501.95;1660613;86;25795;-77
2022/01/22 01:59:51;;;;;;;16.82;7.35;;;;;;;-3.01;83.18;100496.61;1660850;84;26028;-75
2022/01/22 02:02:22;;;;;;;12.18;5.60;;;;;;;-3.01;83.18;100496.61;1660090;86;26009;-76
2022/01/22 02:04:48;;;;;;;14.73;7.72;;;;;;;-2.97;83.24;100503.31;1680368;85;26541;-76
2022/01/22 02:07:14;;;;;;;17.42;8.78;;;;;;;-2.96;83.22;100501.54;1683437;85;27465;-78
2022/01/22 02:09:43;;;;;;;20.80;9.73;;;;;;;-2.96;83.22;100501.54;1682698;83;26461;-76
2022/01/22 02:25:54;;;;;;;16.73;7.87;;;;;;;-2.90;83.53;100508.98;1683315;83;26352;-75
2022/01/22 02:28:18;;;;;;;20.80;9.25;;;;;;;-2.89;83.62;100491.87;1663433;85;25783;-76
2022/01/22 02:30:47;;;;;;;20.25;9.35;;;;;;;-2.88;83.45;100494.84;1683075;83;25769;-76
2022/01/22 02:33:35;;;;;;;15.35;7.30;;;;;;;-2.91;83.38;100488.98;1682107;84;26911;-76
2022/01/22 02:36:04;;;;;;;18.48;9.28;;;;;;;-2.91;83.38;100488.98;1682327;84;26530;-78
2022/01/22 02:38:47;;;;;;;15.18;7.40;;;;;;;-2.87;83.62;100495.69;1682703;84;25755;-76
2022/01/22 02:41:12;;;;;;;15.48;7.53;;;;;;;-2.87;83.66;100498.30;1681929;83;26245;-76
2022/01/22 02:43:34;;;;;;;16.87;7.20;;;;;;;-2.88;83.65;100492.22;1682244;84;26569;-77
2022/01/22 02:46:01;;;;;;;13.93;7.22;;;;;;;-2.88;83.65;100492.22;1683548;85;27443;-76
2022/01/22 02:48:28;;;;;;;17.95;7.35;;;;;;;-2.88;83.73;100500.08;1683324;85;25694;-76
2022/01/22 02:50:54;;;;;;;11.75;6.58;;;;;;;-2.87;83.68;100502.23;1683006;83;25761;-77
2022/01/22 02:53:21;;;;;;;19.40;7.50;;;;;;;-2.88;83.77;100504.47;1683152;85;25844;-76
2022/01/22 02:55:47;;;;;;;21.10;7.67;;;;;;;-2.94;83.87;100494.41;1683195;85;25797;-76
2022/01/22 02:58:15;;;;;;;15.45;7.20;;;;;;;-2.89;83.64;100501.04;1663449;85;27465;-76
2022/01/22 03:00:41;;;;;;;12.37;6.15;;;;;;;-2.87;83.68;100507.02;1683033;83;25996;-76
2022/01/22 03:03:08;;;;;;;15.85;7.42;;;;;;;-2.86;83.87;100502.59;1682910;83;26545;-77
2022/01/22 03:05:35;;;;;;;11.80;7.25;;;;;;;-2.86;83.59;100506.05;1676390;85;25932;-76
2022/01/22 03:08:06;;;;;;;13.83;6.28;;;;;;;-2.85;83.19;100506.44;1676155;85;25796;-76
2022/01/22 03:10:30;;;;;;;14.68;7.47;;;;;;;-2.84;83.03;100509.88;1675620;84;27825;-77
2022/01/22 03:18:05;;;;;;;13.30;6.17;;;;;;;-2.88;83.29;100497.92;1676064;85;25893;-76
2022/01/22 03:20:58;;;;;;;8.85;5.28;;;;;;;-2.91;83.47;100499.00;1674742;84;26517;-77
2022/01/22 03:27:20;;;;;;;13.30;5.40;;;;;;;-2.90;83.80;100477.07;1673069;85;28513;-77
2022/01/22 03:28:27;;;;;;;10.32;4.62;;;;;;;-2.94;83.78;100495.26;1676050;85;25851;-76
2022/01/22 03:30:53;;;;;;;10.98;6.03;;;;;;;-2.94;83.89;100503.58;1675927;84;25819;-76
2022/01/22 03:33:23;;;;;;;9.93;5.30;;;;;;;-2.94;83.40;100508.36;1676055;85;26334;-77
2022/01/22 03:35:57;;;;;;;13.25;5.78;;;;;;;-2.96;83.94;100514.18;1676161;85;27554;-77
2022/01/22 03:38:24;;;;;;;7.15;4.03;;;;;;;-2.99;83.64;100512.25;1656359;85;25779;-76
2022/01/22 03:40:50;;;;;;;8.53;3.55;;;;;;;-3.03;83.89;100501.11;1676181;84;25840;-75
2022/01/22 03:43:18;;;;;;;11.35;4.65;;;;;;;-3.04;84.08;100511.70;1675678;85;25870;-76
2022/01/22 03:45:45;;;;;;;10.40;4.72;;;;;;;-3.01;83.77;100507.09;1676061;85;25961;-76
2022/01/22 03:48:12;;;;;;;8.05;3.60;;;;;;;-3.01;83.77;100507.09;1676209;85;28319;-76
2022/01/22 03:50:39;;;;;;;12.70;3.90;;;;;;;-2.99;83.83;100520.11;1675954;84;25479;-76
2022/01/22 03:53:05;;;;;;;13.22;3.95;;;;;;;-3.00;83.70;100523.19;1676290;85;26449;-76
2022/01/22 03:55:50;;;;;;;10.18;4.53;;;;;;;-3.00;83.31;100528.44;1675846;85;26086;-76
2022/01/22 03:58:16;;;;;;;9.13;3.98;;;;;;;-3.02;83.38;100524.23;1614341;88;25883;-76
2022/01/22 04:00:44;;;;;;;11.40;4.50;;;;;;;-3.05;83.30;100529.66;1675844;84;27427;-76
2022/01/22 04:08:32;;;;;;;10.85;3.95;;;;;;;-3.05;83.27;100527.89;1670446;85;25942;-77
2022/01/22 04:10:59;;;;;;;6.78;3.95;;;;;;;-3.06;83.73;100529.31;1670367;84;25908;-76
2022/01/22 04:13:31;;;;;;;9.68;3.27;;;;;;;-3.05;83.66;100526.58;1670335;85;27527;-76
2022/01/22 04:15:53;;;;;;;9.33;3.67;;;;;;;-3.05;83.58;100518.72;1669476;85;25993;-78
2022/01/22 04:26:52;;;;;;;10.13;4.28;;;;;;;-3.05;83.22;100531.82;1670321;85;28358;-76
2022/01/22 04:29:05;;;;;;;10.15;3.67;;;;;;;-3.05;83.20;100523.95;1667756;85;25783;-75
2022/01/22 04:31:32;;;;;;;9.40;4.25;;;;;;;-3.04;83.11;100524.34;1670023;84;25777;-76
2022/01/22 04:33:58;;;;;;;7.85;3.50;;;;;;;-3.04;83.03;100529.58;1670360;85;25873;-76
2022/01/22 04:36:24;;;;;;;8.63;2.55;;;;;;;-3.02;82.99;100529.47;1670356;84;25904;-76
2022/01/22 04:38:51;;;;;;;7.60;4.25;;;;;;;-3.04;82.86;100531.36;1670606;85;27871;-76
2022/01/22 04:41:17;;;;;;;9.53;3.98;;;;;;;-3.02;83.00;100541.27;1669792;84;26599;-76
2022/01/22 04:43:44;;;;;;;12.50;3.27;;;;;;;-3.02;83.20;100539.48;1670339;85;25774;-76
2022/01/22 04:46:25;;;;;;;9.60;3.35;;;;;;;-3.03;82.90;100540.88;1670586;85;25777;-76
2022/01/22 04:49:05;;;;;;;6.97;2.40;;;;;;;-3.01;83.10;100545.55;1670041;84;25931;-77
2022/01/22 04:56:54;;;;;;;7.65;2.72;;;;;;;-3.04;82.82;100556.25;1632353;87;25906;-76
2022/01/22 04:59:20;;;;;;;9.90;3.70;;;;;;;-3.05;83.02;100560.64;1632294;86;26689;-76
2022/01/22 05:01:48;;;;;;;8.45;3.02;;;;;;;-3.05;82.92;100565.03;1644620;85;25923;-76
2022/01/22 05:04:16;;;;;;;11.10;3.25;;;;;;;-3.04;83.02;100566.73;1646108;84;27441;-77
2022/01/22 05:06:53;;;;;;;9.98;3.65;;;;;;;-3.03;82.79;100569.70;1632238;87;25989;-76
2022/01/22 05:09:23;;;;;;;7.70;3.30;;;;;;;-3.02;82.67;100581.88;1669219;84;25741;-76
2022/01/22 05:11:58;;;;;;;7.00;3.02;;;;;;;-3.03;82.59;100571.86;1670216;85;25804;-77
2022/01/22 05:14:24;;;;;;;9.98;4.00;;;;;;;-3.04;82.51;100577.20;1670769;85;25822;-76
2022/01/22 05:16:52;;;;;;;8.68;2.80;;;;;;;-3.04;82.50;100582.45;1645203;85;27478;-76
2022/01/22 05:19:25;;;;;;;10.72;2.80;;;;;;;-3.05;82.32;100577.67;1670321;84;25775;-76
2022/01/22 05:21:49;;;;;;;7.05;3.22;;;;;;;-3.03;82.40;100577.56;1645037;85;25773;-77
2022/01/22 05:24:19;;;;;;;10.03;3.33;;;;;;;-3.02;82.25;100591.89;1670863;85;25759;-76
2022/01/22 05:27:13;;;;;;;9.05;3.40;;;;;;;-3.02;82.22;100602.84;1670045;85;26493;-75
2022/01/22 05:29:25;;;;;;;7.22;2.92;;;;;;;-3.00;82.12;100587.85;1666750;84;28368;-76
2022/01/22 05:37:08;;;;;;;7.65;3.30;;;;;;;-3.01;81.98;100601.88;1670615;84;26132;-75
2022/01/22 05:39:35;;;;;;;6.70;2.52;;;;;;;-3.01;81.96;100592.70;1670479;84;25751;-76
2022/01/22 05:42:05;;;;;;;8.08;2.55;;;;;;;-3.01;81.93;100597.95;1670165;85;27452;-77
2022/01/22 05:44:32;;;;;;;7.03;3.63;;;;;;;-3.00;81.97;100610.13;1671023;85;26572;-76
2022/01/22 05:47:04;;;;;;;8.70;3.00;;;;;;;-2.97;81.97;100600.77;1645431;85;25744;-77
2022/01/22 05:49:30;;;;;;;7.35;2.58;;;;;;;-2.98;81.94;100606.47;1670436;84;26258;-77
2022/01/22 05:51:57;;;;;;;6.42;3.12;;;;;;;-2.97;81.88;100602.08;1670406;85;25795;-76
2022/01/22 05:59:43;;;;;;;7.12;2.92;;;;;;;-2.93;81.86;100620.58;1670592;84;25295;-76
2022/01/22 06:02:17;;;;;;;6.55;2.87;;;;;;;-2.92;81.72;100627.02;1670586;84;25852;-75
2022/01/22 06:04:46;;;;;;;9.40;3.00;;;;;;;-2.92;81.75;100646.67;1667737;84;26064;-75
2022/01/22 06:07:13;;;;;;;6.37;2.85;;;;;;;-2.90;81.65;100642.64;1639442;86;27543;-76
2022/01/22 06:09:53;;;;;;;10.95;3.37;;;;;;;-2.90;81.66;100650.03;1660224;84;25750;-77
2022/01/22 06:14:39;;;;;;;8.08;3.50;;;;;;;-2.86;81.65;100650.20;1660056;84;25953;-76
2022/01/22 06:17:05;;;;;;;7.87;2.37;;;;;;;-2.85;81.55;100652.36;1660605;85;25819;-76
2022/01/22 06:19:39;;;;;;;5.03;2.27;;;;;;;-2.85;81.79;100660.22;1651278;84;27584;-76
2022/01/22 06:22:06;;;;;;;6.33;2.55;;;;;;;-2.85;81.79;100660.22;1660218;86;25900;-78
2022/01/22 06:24:32;;;;;;;9.78;2.80;;;;;;;-2.82;81.84;100662.16;1660535;86;25864;-76
2022/01/22 06:27:00;;;;;;;8.20;2.72;;;;;;;-2.82;81.79;100671.33;1640878;85;25948;-76
2022/01/22 06:29:26;;;;;;;9.15;3.40;;;;;;;-2.76;81.63;100680.59;1660047;84;26590;-75
2022/01/22 06:31:52;;;;;;;8.95;2.98;;;;;;;-2.76;81.68;100678.79;1659852;85;28384;-76
2022/01/22 06:34:20;;;;;;;4.95;2.75;;;;;;;-2.74;81.60;100665.60;1660814;84;26045;-77
2022/01/22 06:36:47;;;;;;;8.40;3.00;;;;;;;-2.73;81.65;100673.36;1638678;86;25779;-76
2022/01/22 06:39:16;;;;;;;12.98;2.52;;;;;;;-2.67;81.66;100689.14;1659860;84;26297;-77
2022/01/22 06:41:47;;;;;;;9.73;3.22;;;;;;;-2.67;81.66;100689.14;1646099;86;25892;-76
2022/01/22 06:44:34;;;;;;;8.50;3.00;;;;;;;-2.65;81.58;100683.36;1660265;86;27534;-76
2022/01/22 06:47:02;;;;;;;9.63;2.63;;;;;;;-2.64;81.61;100672.76;1659556;86;25784;-76
2022/01/22 06:49:48;;;;;;;8.63;2.60;;;;;;;-2.64;81.42;100678.47;1657074;84;25910;-76
2022/01/22 06:52:23;;;;;;;9.68;2.80;;;;;;;-2.64;81.54;100681.94;1657372;84;26745;-75
2022/01/22 06:54:51;;;;;;;5.58;3.10;;;;;;;-2.64;81.48;100682.40;1660822;85;25279;-77
2022/01/22 06:57:17;;;;;;;6.40;2.83;;;;;;;-2.61;81.23;100700.56;1660576;85;27455;-76
2022/01/22 06:59:43;;;;;;;9.80;2.72;;;;;;;-2.61;81.23;100700.56;1660225;84;25763;-76
2022/01/22 07:02:10;;;;;;;8.13;2.90;;;;;;;-2.60;81.61;100714.87;1660524;85;25886;-75
2022/01/22 07:04:37;;;;;;;6.62;2.27;;;;;;;-2.57;81.63;100713.84;1661018;84;25882;-76
2022/01/22 07:07:20;;;;;;;10.95;2.87;;;;;;;-2.55;81.73;100716.73;1657674;84;25989;-76
2022/01/22 07:09:47;;;;;;;7.87;2.80;;;;;;;-2.52;81.64;100719.14;1687453;83;27629;-76
2022/01/22 07:12:13;;;;;;;6.70;2.50;;;;;;;-2.46;81.63;100727.91;1687374;84;25850;-76
2022/01/22 07:14:41;;;;;;;6.47;2.27;;;;;;;-2.46;81.63;100727.91;1668494;84;25787;-76
2022/01/22 07:17:08;;;;;;;8.58;4.17;;;;;;;-2.41;81.66;100734.16;1647718;85;25853;-76
2022/01/22 07:19:41;;;;;;;10.53;2.90;;;;;;;-2.35;81.64;100720.64;1670276;84;26394;-76
2022/01/22 07:25:10;;;;;;;6.40;3.00;;;;;;;-2.27;81.60;100733.27;1667677;85;26564;-76
2022/01/22 07:27:36;;;;;;;10.85;3.12;;;;;;;-2.23;81.54;100739.98;1647844;85;25865;-77
2022/01/22 07:30:04;;;;;;;9.28;3.42;;;;;;;-2.19;81.44;100738.83;1670528;84;26540;-77
2022/01/22 07:32:36;;;;;;;4.83;2.05;;;;;;;-2.17;81.29;100735.16;1647617;85;25855;-76
2022/01/22 07:35:05;;;;;;;7.08;2.70;;;;;;;-2.18;81.15;100733.97;1670636;85;27514;-76
2022/01/22 07:37:32;;;;;;;6.22;2.65;;;;;;;-2.18;81.15;100733.97;1670644;85;26060;-76
2022/01/22 07:40:00;;;;;;;10.25;2.77;;;;;;;-2.19;81.11;100725.25;1669791;84;26363;-76
2022/01/22 07:42:36;;;;;;;10.10;2.85;;;;;;;-2.14;81.06;100740.69;1668651;85;26011;-76
2022/01/22 07:45:05;;;;;;;10.95;3.58;;;;;;;-2.08;81.05;100746.83;1664708;85;25841;-76
2022/01/22 07:47:32;;;;;;;11.05;3.62;;;;;;;-2.05;81.04;100757.12;1670898;85;28525;-77
2022/01/22 07:50:00;;;;;;;13.20;3.60;;;;;;;-2.02;81.01;100771.34;1647190;85;25911;-76
2022/01/22 07:52:27;;;;;;;12.45;3.87;;;;;;;-1.98;81.38;100771.50;1670465;85;25919;-76
2022/01/22 07:54:54;;;;;;;6.87;3.12;;;;;;;-1.98;81.38;100771.50;1670687;85;25832;-78
2022/01/22 07:57:20;;;;;;;6.37;2.85;;;;;;;-1.89;81.26;100778.77;1670670;85;26406;-77
2022/01/22 07:59:47;;;;;;;10.00;3.20;;;;;;;-1.74;81.24;100788.23;1647161;85;28237;-76
2022/01/22 08:02:14;;;;;;;10.32;3.37;;;;;;;-1.66;81.06;100795.11;1670483;85;25853;-77
2022/01/22 08:04:55;;;;;;;6.05;2.45;;;;;;;-1.59;81.13;100796.37;1664108;85;25890;-75
2022/01/22 08:07:23;;;;;;;7.12;3.08;;;;;;;-1.47;80.92;100797.30;1665580;85;25956;-76
2022/01/22 08:09:53;;;;;;;11.65;3.17;;;;;;;-1.47;80.92;100797.30;1636089;86;26703;-77
2022/01/22 08:12:21;;;;;;;7.28;3.67;;;;;;;-1.44;80.52;100805.84;1636074;87;28274;-76
2022/01/22 08:14:49;;;;;;;3.90;2.27;;;;;;;-1.40;80.70;100799.42;1631869;87;25776;-77
2022/01/22 08:17:16;;;;;;;8.10;3.22;;;;;;;-1.34;80.54;100803.39;1614042;88;26522;-76
2022/01/22 08:19:42;;;;;;;10.03;3.40;;;;;;;-1.30;80.51;100803.55;1631206;86;25862;-77
2022/01/22 08:22:27;;;;;;;6.50;3.00;;;;;;;-1.29;80.39;100806.09;1631126;87;26527;-76
2022/01/22 08:25:01;;;;;;;6.15;3.40;;;;;;;-1.24;80.45;100809.72;1603953;87;28474;-76
2022/01/22 08:29:57;;;;;;;8.43;3.08;;;;;;;-1.25;80.07;100816.75;1631160;86;25715;-77
2022/01/22 08:37:53;;;;;;;12.13;3.35;;;;;;;-1.19;80.31;100839.12;1631108;87;27514;-76
2022/01/22 08:40:20;;;;;;;8.85;3.42;;;;;;;-1.12;80.57;100849.59;1630845;86;25992;-75
2022/01/22 08:42:46;;;;;;;6.78;3.42;;;;;;;-1.06;80.49;100850.01;1630975;87;25839;-76
2022/01/22 08:45:13;;;;;;;10.82;4.53;;;;;;;-1.01;80.51;100861.52;1611049;87;26297;-76
2022/01/22 08:47:40;;;;;;;8.68;3.40;;;;;;;-0.98;80.55;100847.67;1610913;87;26098;-76
2022/01/22 08:50:07;;;;;;;14.38;3.92;;;;;;;-0.94;80.58;100849.64;1631136;86;27458;-76
2022/01/22 08:52:35;;;;;;;6.72;3.30;;;;;;;-0.90;80.58;100861.62;1631099;87;25830;-76
2022/01/22 08:55:05;;;;;;;8.15;3.45;;;;;;;-0.87;80.51;100867.48;1631077;87;25868;-77
2022/01/22 08:57:32;;;;;;;9.53;3.37;;;;;;;-0.86;80.40;100870.50;1631392;87;25903;-76
2022/01/22 09:00:08;;;;;;;10.63;3.70;;;;;;;-0.84;80.56;100883.06;1630790;86;25609;-76
2022/01/22 09:02:36;;;;;;;10.08;3.55;;;;;;;-0.78;80.59;100885.73;1630110;87;27483;-76
2022/01/22 09:05:17;;;;;;;13.93;2.80;;;;;;;-0.68;80.76;100880.67;1630426;87;26029;-76
2022/01/22 09:08:04;;;;;;;10.63;3.55;;;;;;;-0.56;81.08;100887.69;1631116;87;26487;-76
2022/01/22 09:10:35;;;;;;;4.70;2.45;;;;;;;-0.44;80.90;100906.06;1627959;86;25880;-77
2022/01/22 09:13:11;;;;;;;8.73;3.90;;;;;;;-0.31;80.85;100909.97;1630171;87;26075;-77
2022/01/22 09:15:43;;;;;;;10.53;3.67;;;;;;;-0.20;80.94;100912.21;1634870;87;27490;-76
2022/01/22 09:18:09;;;;;;;10.58;3.52;;;;;;;-0.13;80.66;100917.38;1636405;86;25912;-76
2022/01/22 09:23:09;;;;;;;9.10;3.62;;;;;;;-0.03;80.63;100922.36;1636118;87;25833;-77
2022/01/22 09:25:36;;;;;;;8.20;3.15;;;;;;;0.04;80.36;100935.08;1636196;87;26653;-76
2022/01/22 09:28:07;;;;;;;5.60;2.90;;;;;;;0.09;80.38;100925.88;1636219;86;28536;-76
2022/01/22 09:30:34;;;;;;;6.55;2.77;;;;;;;0.15;80.19;100923.29;1636121;86;25811;-76
2022/01/22 09:33:00;;;;;;;8.28;2.98;;;;;;;0.20;79.51;100930.36;1636229;86;26279;-77
2022/01/22 09:35:46;;;;;;;7.35;3.05;;;;;;;0.24;79.05;100935.76;1636374;87;25804;-75
2022/01/22 09:38:32;;;;;;;7.03;3.00;;;;;;;0.24;79.13;100931.34;1579542;90;25943;-76
2022/01/22 09:41:21;;;;;;;4.12;2.12;;;;;;;0.26;78.67;100937.33;1579125;90;27562;-75
2022/01/22 09:43:50;;;;;;;7.67;2.52;;;;;;;0.26;76.82;100956.24;1592137;87;26326;-76
2022/01/22 09:46:34;;;;;;;2.72;1.82;;;;;;;0.24;75.65;100947.14;1636615;86;25575;-76
2022/01/22 09:49:08;;;;;;;4.42;2.00;;;;;;;0.25;76.13;100953.27;1635315;87;25848;-76
2022/01/22 09:51:45;;;;;;;4.95;2.52;;;;;;;0.34;76.90;100963.13;1587348;87;26504;-75
2022/01/22 09:54:13;;;;;;;5.30;2.10;;;;;;;0.40;75.74;100965.31;1586582;90;28283;-76
2022/01/22 09:56:56;;;;;;;4.43;1.77;;;;;;;0.47;75.55;100966.05;1588430;90;25341;-76
2022/01/22 09:59:41;;;;;;;4.22;1.90;;;;;;;0.51;74.60;100972.77;1600376;88;25445;-76
2022/01/22 10:02:14;;;;;;;2.83;1.57;;;;;;;0.51;73.19;100978.54;1599269;89;25874;-76
2022/01/22 10:04:45;;;;;;;5.22;2.00;;;;;;;0.49;71.90;100978.63;1600894;89;25772;-77
2022/01/22 10:07:23;;;;;;;4.65;1.80;;;;;;;0.45;71.92;100977.68;1563335;89;27584;-76
2022/01/22 10:10:00;;;;;;;2.87;1.70;;;;;;;0.43;72.48;100986.14;1542003;89;25931;-76
2022/01/22 10:12:48;;;;;;;2.52;1.70;;;;;;;0.47;71.89;100979.22;1601485;88;25550;-75
2022/01/22 10:15:22;;;;;;;3.45;2.00;;;;;;;0.51;72.00;100989.08;1611041;88;26348;-77
2022/01/22 10:17:57;;;;;;;4.53;1.80;;;;;;;0.58;72.66;100981.06;1610631;88;26576;-78
2022/01/22 10:20:41;;;;;;;3.83;2.00;;;;;;;0.65;72.02;100995.48;1611652;87;27498;-78
2022/01/22 10:23:24;;;;;;;2.77;2.15;;;;;;;0.66;71.16;100996.67;1611449;88;26436;-78
2022/01/22 10:26:02;;;;;;;4.40;1.70;;;;;;;0.65;70.50;101008.19;1599907;89;26543;-78
2022/01/22 10:28:27;;;;;;;4.78;1.70;;;;;;;0.66;69.58;101026.17;1611340;88;26409;-78
2022/01/22 10:31:06;;;;;;;2.02;1.45;;;;;;;0.67;69.65;101016.82;1610216;87;25825;-79
2022/01/22 10:34:09;;;;;;;1.17;1.02;;;;;;;0.71;68.72;101018.27;1574450;88;27525;-78
2022/01/22 10:37:02;;;;;;;2.50;1.55;;;;;;;0.75;67.26;101025.47;1580738;90;26088;-77
2022/01/22 10:39:44;;;;;;;2.65;1.45;;;;;;;0.75;66.69;101034.22;1611392;87;26485;-79
2022/01/22 10:42:22;;;;;;;2.05;1.60;;;;;;;0.74;66.53;101051.02;1610525;88;25763;-79
2022/01/22 10:44:50;;;;;;;4.85;2.05;;;;;;;0.73;67.23;101052.42;1611482;88;25840;-78
2022/01/22 10:47:22;;;;;;;1.47;1.37;;;;;;;0.76;67.10;101059.66;1611644;88;27653;-77
2022/01/22 10:49:48;;;;;;;4.75;1.60;;;;;;;0.77;66.15;101057.83;1610369;87;25866;-77
2022/01/22 10:52:14;;;;;;;3.02;2.10;;;;;;;0.79;67.03;101065.18;1611612;88;25520;-78
2022/01/22 10:54:41;;;;;;;4.25;1.80;;;;;;;0.82;66.43;101068.05;1611386;88;25807;-78
2022/01/22 10:57:20;;;;;;;5.45;2.17;;;;;;;0.86;67.52;101073.45;1611462;88;26004;-78
2022/01/22 10:59:51;;;;;;;4.30;1.77;;;;;;;0.85;66.88;101080.55;1610596;87;27490;-78
2022/01/22 11:02:34;;;;;;;6.15;2.37;;;;;;;0.81;66.83;101079.09;1610739;88;25843;-78
2022/01/22 11:05:01;;;;;;;6.92;2.27;;;;;;;0.82;67.00;101088.67;1598909;89;26073;-78
2022/01/22 11:07:27;;;;;;;3.40;1.87;;;;;;;0.85;66.79;101098.16;1611543;88;26472;-78
2022/01/22 11:09:55;;;;;;;3.67;1.85;;;;;;;0.84;65.97;101093.82;1611620;87;26677;-79
2022/01/22 11:12:21;;;;;;;4.00;2.10;;;;;;;0.77;67.04;101103.50;1610455;88;27692;-77
2022/01/22 11:14:47;;;;;;;2.15;1.62;;;;;;;0.72;67.75;101100.38;1632136;87;25339;-79
2022/01/22 11:17:14;;;;;;;2.10;1.15;;;;;;;0.69;66.52;101110.29;1636540;87;25805;-78
2022/01/22 11:19:45;;;;;;;2.75;1.92;;;;;;;0.66;65.34;101114.48;1637482;86;26042;-77
2022/01/22 11:22:14;;;;;;;1.92;1.37;;;;;;;0.65;64.84;101116.27;1637430;87;26059;-76
2022/01/22 11:24:44;;;;;;;2.12;1.30;;;;;;;0.72;65.42;101125.90;1637926;86;28171;-75
2022/01/22 11:27:15;;;;;;;4.17;1.40;;;;;;;0.79;64.85;101124.01;1637857;87;25745;-76
2022/01/22 11:30:03;;;;;;;;;;;;;;;0.80;63.08;101114.31;1640129;86;25846;-76
2022/01/22 11:32:46;;;;;;;2.20;1.30;;;;;;;0.79;63.90;101124.01;1635810;87;26642;-76
2022/01/22 11:35:19;;;;;;;2.75;1.40;;;;;;;0.83;64.46;101135.66;1613364;87;25760;-77
2022/01/22 11:37:50;;;;;;;3.35;1.72;;;;;;;0.83;64.07;101133.03;1637863;87;27470;-77
2022/01/22 11:40:23;;;;;;;5.12;2.02;;;;;;;0.81;64.46;101131.83;1637567;86;25977;-75
2022/01/22 11:43:08;;;;;;;2.10;1.62;;;;;;;0.82;64.84;101130.01;1637468;87;26273;-78
2022/01/22 11:45:41;;;;;;;4.22;1.90;;;;;;;0.87;64.36;101136.65;1637508;87;26637;-78
2022/01/22 11:48:30;;;;;;;3.08;1.92;;;;;;;0.94;64.80;101139.69;1637988;87;25802;-77
2022/01/22 11:51:21;;;;;;;5.65;2.20;;;;;;;0.96;64.75;101141.73;1637577;86;28070;-76
2022/01/22 11:53:57;;;;;;;;;;;;;;;0.99;64.66;101141.02;1639853;87;26580;-76
2022/01/22 11:56:26;;;;;;;4.28;2.25;;;;;;;1.03;64.71;101140.30;1610156;88;25818;-78
2022/01/22 11:59:03;;;;;;;2.72;2.15;;;;;;;1.01;65.27;101139.11;1614387;87;26587;-78
2022/01/22 12:04:21;;;;;;;3.92;2.40;;;;;;;1.04;65.47;101140.22;1638086;87;27448;-79
2022/01/22 12:07:08;;;;;;;5.25;2.72;;;;;;;1.04;65.90;101152.08;1637460;87;25986;-78
2022/01/22 12:15:23;;;;;;;6.37;2.95;;;;;;;0.91;64.68;101162.31;1637742;87;26712;-76
2022/01/22 12:18:05;;;;;;;2.27;1.92;;;;;;;0.87;65.30;101168.77;1637807;87;27492;-76
2022/01/22 12:23:10;;;;;;;3.60;2.02;;;;;;;0.82;63.01;101181.43;1637511;86;25868;-76
2022/01/22 12:25:45;;;;;;;3.62;1.98;;;;;;;0.80;63.38;101181.55;1637374;87;25843;-76
2022/01/22 12:28:14;;;;;;;5.45;2.27;;;;;;;0.82;62.47;101185.38;1637797;87;25824;-76
2022/01/22 12:30:45;;;;;;;4.87;2.58;;;;;;;0.82;63.70;101190.19;1637586;86;27465;-76
2022/01/22 12:33:15;;;;;;;6.25;2.22;;;;;;;0.86;63.78;101196.08;1637532;86;25874;-76
2022/01/22 12:35:46;;;;;;;3.92;2.10;;;;;;;0.90;64.31;101196.25;1637801;87;26280;-76
2022/01/22 12:38:24;;;;;;;5.42;3.30;;;;;;;0.92;64.94;101195.16;1638043;87;26593;-77
2022/01/22 12:40:58;;;;;;;7.28;3.40;;;;;;;0.95;64.73;101205.97;1637077;86;25873;-76
2022/01/22 12:43:34;;;;;;;5.05;2.98;;;;;;;0.94;64.66;101204.30;1603627;89;27502;-76
2022/01/22 12:46:02;;;;;;;4.67;2.52;;;;;;;0.90;65.12;101212.89;1601046;89;26658;-76
2022/01/22 12:48:33;;;;;;;3.83;2.83;;;;;;;0.89;64.20;101213.86;1601000;88;26744;-76
2022/01/22 12:51:01;;;;;;;;;;;;;;;0.85;64.44;101221.62;1603449;88;25856;-76
2022/01/22 12:53:28;;;;;;;5.58;3.00;;;;;;;0.81;64.36;101218.84;1601396;88;25793;-77
2022/01/22 12:58:24;;;;;;;2.75;1.95;;;;;;;0.74;64.91;101226.81;1601286;88;25741;-75
2022/01/22 13:00:53;;;;;;;5.87;2.27;;;;;;;0.79;65.21;101237.39;1601233;88;26463;-77
2022/01/22 13:03:35;;;;;;;3.10;2.00;;;;;;;0.81;64.09;101254.45;1601444;88;26480;-78
2022/01/22 13:06:03;;;;;;;4.28;2.00;;;;;;;0.85;63.83;101248.47;1601493;88;25849;-76
2022/01/22 13:08:34;;;;;;;6.22;2.65;;;;;;;0.83;63.91;101250.37;1567405;89;27610;-76
2022/01/22 13:11:10;;;;;;;3.25;2.02;;;;;;;0.80;64.10;101251.42;1600949;88;25846;-77
2022/01/22 13:13:40;;;;;;;3.17;2.25;;;;;;;0.82;63.45;101251.30;1609590;87;25977;-77
2022/01/22 13:16:13;;;;;;;3.05;1.60;;;;;;;0.79;62.57;101253.72;1632285;87;25842;-77
2022/01/22 13:18:50;;;;;;;5.12;1.95;;;;;;;0.76;62.76;101255.23;1632342;87;25864;-76
2022/01/22 13:21:20;;;;;;;3.65;1.75;;;;;;;0.73;62.85;101254.97;1632214;86;28345;-77
2022/01/22 13:24:08;;;;;;;3.37;1.85;;;;;;;0.69;61.74;101271.96;1632125;87;25820;-76
2022/01/22 13:26:54;;;;;;;3.72;1.77;;;;;;;0.69;62.57;101279.02;1632617;87;25812;-76
2022/01/22 13:29:26;;;;;;;5.25;2.47;;;;;;;0.69;62.93;101282.97;1631737;86;26382;-77